Flight Track Log - Related Links

Times and Time Zones

All times are in EDT time to prevent confusion due to time zone crossing. See the VH-SBM flight status page for this flight to view local times or setup timezone preferences in your user account.

Time Position Orientation Groundspeed Altitude Reporting Facility
EDT Latitude Longitude Course Direction KTS MPH feet Rate Location/Type
Thu 04:28:42 AM -15.4486 145.1873 176° South 1,300  Level Aus ATC (Calculated)
Thu 04:29:01 AM -15.5362 145.2219 205° Southwest 1,300 2,159 Level Aus ATC (Calculated)
Thu 04:29:35 AM -15.5362 145.2219 205° Southwest 1,300 2,441 Level Aus ATC (Calculated)
Thu 04:31:00 AM -15.5915 145.2437 159° South  Level FlightAware Approximate
Thu 04:31:26 AM -15.5869 145.1970 159° South 170 196 7,200  Level Aus ATC (RADAR)
Thu 04:31:41 AM -15.5988 145.2049 147° Southeast 185 213 7,300 1,680 Climbing Aus ATC (RADAR)
Thu 04:32:16 AM -15.6255 145.2174 156° South 179 206 8,600 1,725 Climbing Aus ATC (RADAR)
Thu 04:33:01 AM -15.6637 145.2283 165° South 189 217 9,600 1,482 Climbing Aus ATC (RADAR)
Thu 04:33:41 AM -15.6978 145.2408 161° South 191 220 10,700 1,482 Climbing Aus ATC (RADAR)
Thu 04:34:26 AM -15.7366 145.2558 160° South 197 227 11,700 1,114 Climbing Aus ATC (RADAR)
Thu 04:34:51 AM -15.7591 145.2645 160° South 204 235 12,000 900 Climbing Aus ATC (RADAR)
Thu 04:35:26 AM -15.7886 145.2793 154° Southeast 198 228 12,600 660 Climbing Aus ATC (RADAR)
Thu 04:36:31 AM -15.8443 145.3048 156° South 211 243 13,100 333 Climbing Aus ATC (RADAR)
Thu 04:36:56 AM -15.8674 145.3126 162° South 209 241 13,100  Level Aus ATC (RADAR)
Thu 04:37:30 AM -15.8986 145.3277 155° Southeast 211 243 13,100  Level Aus ATC (RADAR)
Thu 04:38:20 AM -15.9390 145.3435 159° South 182 209 13,100  Level Aus ATC (RADAR)
Thu 04:38:55 AM -15.9631 145.3535 158° South 161 185 13,100  Level Aus ATC (RADAR)
Thu 04:39:45 AM -15.9975 145.3685 157° South 161 185 13,100  Level Aus ATC (RADAR)
Thu 04:40:10 AM -16.0147 145.3750 160° South 159 183 13,100  Level Aus ATC (RADAR)
Thu 04:41:15 AM -16.0599 145.3941 158° South 162 186 13,100  Level Aus ATC (RADAR)
Thu 04:41:40 AM -16.0770 145.4020 156° South 163 188 13,100  Level Aus ATC (RADAR)
Thu 04:42:05 AM -16.0945 145.4104 155° Southeast 164 189 13,100  Level Aus ATC (RADAR)
Thu 04:42:45 AM -16.1228 145.4233 156° South 167 192 13,100  Level Aus ATC (RADAR)
Thu 04:43:20 AM -16.1504 145.4359 156° South 184 212 13,100  Level Aus ATC (RADAR)
Thu 04:43:55 AM -16.1810 145.4502 156° South 204 235 13,100  Level Aus ATC (RADAR)
Thu 04:44:40 AM -16.2222 145.4691 156° South 215 247 13,100  Level Aus ATC (RADAR)
Thu 04:45:05 AM -16.2454 145.4798 156° South 218 251 13,100  Level Aus ATC (RADAR)
Thu 04:45:45 AM -16.2833 145.4961 158° South 220 253 13,100 -424 Level Aus ATC (RADAR)
Thu 04:46:44 AM -16.3419 145.5224 157° South 234 269 12,400 -929 Descending Aus ATC (RADAR)
Thu 04:47:09 AM -16.3685 145.5322 160° South 242 278 11,800 -1,700 Descending Aus ATC (RADAR)
Thu 04:47:44 AM -16.4071 145.5457 162° South 250 288 10,700 -1,440 Descending Aus ATC (RADAR)
Thu 04:48:24 AM -16.4482 145.5601 161° South 233 268 10,000 -1,280 Descending Aus ATC (RADAR)
Thu 04:48:59 AM -16.4795 145.5713 161° South 208 239 9,100 -1,407 Descending Aus ATC (RADAR)
Thu 04:49:45 AM -16.5180 145.5845 162° South 194 223 8,100 -1,457 Descending Aus ATC (RADAR)
Thu 04:50:09 AM -16.5376 145.5937 156° South 187 215 7,400 -1,424 Descending Aus ATC (RADAR)
Thu 04:50:44 AM -16.5654 145.6051 159° South 185 213 6,700 -960 Descending Aus ATC (RADAR)
Thu 04:51:49 AM -16.6117 145.6267 156° South 168 193 5,800 -800 Descending Aus ATC (RADAR)
Thu 04:52:14 AM -16.6289 145.6345 156° South 163 188 5,500 -800 Descending Aus ATC (RADAR)
Thu 04:52:49 AM -16.6520 145.6467 153° Southeast 160 184 5,000 -880 Descending Aus ATC (RADAR)
Thu 04:53:29 AM -16.6792 145.6576 159° South 158 182 4,400 -1,040 Descending Aus ATC (RADAR)
Thu 04:54:04 AM -16.7019 145.6682 156° South 154 177 3,700 -1,125 Descending Aus ATC (RADAR)
Thu 04:54:49 AM -16.7302 145.6814 156° South 150 173 2,900 -960 Descending Aus ATC (RADAR)
Thu 04:55:19 AM -16.7481 145.6897 156° South 146 168 2,500 -738 Descending Aus ATC (RADAR)
Thu 04:55:54 AM -16.7681 145.6988 157° South 139 160 2,100 -632 Descending Aus ATC (RADAR)
Thu 04:56:54 AM -16.7979 145.7118 157° South 125 144 1,500 -571 Descending Aus ATC (RADAR)
Thu 04:57:18 AM -16.8101 145.7189 151° Southeast 119 137 1,300 -712 Descending Aus ATC (RADAR)
Thu 04:57:53 AM -16.8262 145.7257 158° South 109 125 800 -600 Descending Aus ATC (RADAR)
Thu 04:58:38 AM -16.8444 145.7343 156° South 93 107 500 -375 Descending Aus ATC (RADAR)
Thu 04:59:13 AM -16.8551 145.7392 156° South 75 86 300 -343 Descending Aus ATC (RADAR)

Login

Don't have an account? Register now (free) for customized features, flight alerts, and more!